• Join FlightAware (Why Join?)
  • Login
  • US Flag 
04:13AM EDT


 

Airport Tracker/Info


-or-


 

Live Flight TrackerFlight Track Log ✈ TCF5990 ✈ 16-Apr-2013 ✈ KLGA - KCMH

Flight Track Log - Related Links

Times and Time Zones

All times are in EDT time to prevent confusion due to time zone crossing. See the TCF5990 flight status page for this flight to view local times or setup timezone preferences in your user account.

Time Position Orientation Groundspeed Altitude Reporting Facility
EDT Latitude Longitude Course Direction KTS MPH feet Rate Location/Type
01:49PM 40.7500 -73.8500 270° West 139 160 1,900  Level New York TRACON
01:50PM 40.7500 -73.7833 90° East 252 290 4,600 2,760 Climbing New York TRACON
01:51PM 40.7833 -74.2306 270° West  Level FlightAware Approximate
01:51PM 40.8000 -73.8167 333° Northwest 254 292 7,500  Level New York TRACON
01:52PM 40.7834 -74.3535 270° West  Level FlightAware Approximate
01:52PM 40.8500 -73.9000 308° West 270 311 9,700  Level New York TRACON
01:53PM 40.7834 -74.4764 270° West  Level FlightAware Approximate
01:53PM 40.8667 -73.9833 285° West 269 310 12,300  Level New York TRACON
01:54PM 40.7834 -74.5993 270° West  Level FlightAware Approximate
01:54PM 40.8667 -74.1000 270° West 307 353 14,600  Level New York TRACON
01:55PM 40.8500 -74.2167 259° West 322 371 15,000 1,200 Climbing New York TRACON
01:56PM 40.8500 -74.3500 270° West 338 389 17,000 960 Climbing New York TRACON
01:57PM 40.8333 -74.4667 259° West 325 374 17,000  Level New York TRACON
01:58PM 40.8314 -74.6436 269° West 319 367 17,000  Level New York Center
01:59PM 40.8258 -74.7503 266° West 330 380 17,000 720 Level New York Center
02:00PM 40.8169 -74.8867 265° West 337 388 18,500 1,680 Climbing New York Center
02:01PM 40.8106 -75.0069 266° West 337 388 20,500 1,860 Climbing New York Center
02:02PM 40.8019 -75.1325 265° West 337 388 22,300 1,680 Climbing New York Center
02:03PM 40.7831 -75.2492 258° West 355 409 23,900 1,620 Climbing New York Center
02:04PM 40.7633 -75.3794 259° West 361 415 25,500 1,560 Climbing New York Center
02:05PM 40.7183 -75.5161 247° West 366 421 27,000 1,380 Climbing New York Center
02:06PM 40.6714 -75.6442 244° Southwest 380 437 28,400 1,560 Climbing New York Center
02:07PM 40.6203 -75.7717 242° Southwest 393 452 30,200 1,560 Climbing New York Center
02:08PM 40.5731 -75.9022 245° Southwest 398 458 31,600 1,560 Climbing New York Center
02:09PM 40.5242 -76.0186 241° Southwest 398 458 33,400 1,200 Climbing New York Center
02:10PM 40.4769 -76.1433 244° Southwest 398 458 34,000 300 Climbing New York Center
02:11PM 40.4272 -76.2731 243° Southwest 398 458 34,000  Level New York Center
02:12PM 40.3794 -76.3975 243° Southwest 398 458 34,000  Level New York Center
02:13PM 40.3319 -76.5214 243° Southwest 398 458 34,000  Level New York Center
02:14PM 40.2800 -76.6450 241° Southwest 393 452 34,000  Level New York Center
02:15PM 40.2322 -76.7661 243° Southwest 393 452 34,000  Level New York Center
02:16PM 40.1772 -76.9028 242° Southwest 393 452 34,000  Level New York Center
02:17PM 40.1292 -77.0233 242° Southwest 388 447 34,000  Level New York Center
02:18PM 40.0789 -77.1464 242° Southwest 388 447 34,000  Level New York Center
02:19PM 40.0283 -77.2692 242° Southwest 388 447 34,000  Level New York Center
02:20PM 39.9800 -77.3867 242° Southwest 383 441 34,000  Level New York Center
02:21PM 39.9558 -77.5225 257° West 373 429 34,000  Level New York Center
02:22PM 39.9589 -77.6606 272° West 374 430 34,000  Level Cleveland Center
02:23PM 39.9642 -77.7986 273° West 379 436 34,000  Level Cleveland Center
02:24PM 39.9697 -77.9392 273° West 384 442 34,000  Level Cleveland Center
02:25PM 39.9728 -78.0772 272° West 384 442 34,000  Level Cleveland Center
02:26PM 39.9781 -78.2153 273° West 384 442 34,000  Level Cleveland Center
02:27PM 39.9828 -78.3533 273° West 384 442 34,000  Level Cleveland Center
02:28PM 39.9856 -78.4914 272° West 384 442 34,000 -180 Level Cleveland Center
02:29PM 39.9900 -78.6294 272° West 384 442 33,700 -600 Descending Cleveland Center
02:30PM 39.9903 -78.7731 270° West 384 442 32,800 -900 Descending Cleveland Center
02:31PM 39.9925 -78.9139 271° West 384 442 32,000 -420 Descending Cleveland Center
02:32PM 39.9989 -79.0708 273° West 389 448 32,000  Level Cleveland Center
02:33PM 40.0028 -79.2144 272° West 389 448 32,000  Level Cleveland Center
02:34PM 40.0042 -79.3581 271° West 394 453 32,000  Level Cleveland Center
02:35PM 40.0078 -79.5017 272° West 399 459 32,000  Level Cleveland Center
02:36PM 40.0092 -79.6397 271° West 399 459 32,000  Level Cleveland Center
02:37PM 40.0103 -79.7808 271° West 399 459 32,000  Level Cleveland Center
02:38PM 40.0111 -79.9272 270° West 399 459 32,000  Level Cleveland Center
02:39PM 40.0139 -80.0544 272° West 399 459 32,000  Level Cleveland Center
02:40PM 40.0164 -80.1981 271° West 399 459 32,000  Level Cleveland Center
02:41PM 40.0169 -80.3419 270° West 399 459 32,000  Level Cleveland Center
02:42PM 40.0172 -80.4856 270° West 399 459 32,000 -480 Level Cleveland Center
02:43PM 40.0089 -80.6264 266° West 399 459 31,100 -900 Descending Cleveland Center
02:44PM 39.9878 -80.7619 259° West 404 465 30,200 -1,200 Descending Cleveland Center
02:45PM 39.9667 -80.8919 258° West 393 452 28,700 -1,800 Descending Cleveland Center
02:48PM 39.9192 -81.1692 257° West 358 412 24,500 -1,980 Descending Indianapolis Center
02:49PM 39.8953 -81.3139 258° West 341 392 22,400 -1,860 Descending Indianapolis Center
02:50PM 39.8758 -81.4253 257° West 320 368 20,700 -1,620 Descending Indianapolis Center
02:51PM 39.8583 -81.5339 258° West 317 365 19,100 -1,560 Descending Indianapolis Center
02:52PM 39.8400 -81.6442 258° West 310 357 17,500 -1,560 Descending Indianapolis Center
02:53PM 39.8219 -81.7497 257° West 299 344 15,900 -1,800 Descending Indianapolis Center
02:53PM 39.8094 -81.8194 257° West 294 338 14,800 -1,680 Descending Indianapolis Center
02:54PM 39.8033 -81.8539 257° West 294 338 14,200 -1,380 Descending Indianapolis Center
02:54PM 39.7967 -81.8969 259° West 288 331 13,700 -1,680 Descending Indianapolis Center
02:55PM 39.8072 -81.9725 280° West 291 335 12,500 -1,680 Descending Indianapolis Center
02:55PM 39.8150 -82.0125 284° West 292 336 11,900 -1,560 Descending Indianapolis Center
02:56PM 39.8297 -82.0717 288° West 287 330 10,900 -1,380 Descending Indianapolis Center
02:56PM 39.8400 -82.1156 287° West 276 318 10,400 -1,200 Descending Indianapolis Center
02:57PM 39.8517 -82.1650 287° West 270 311 9,700 -1,200 Descending Indianapolis Center
02:57PM 39.8581 -82.1986 284° West 256 295 9,300 -1,080 Descending Indianapolis Center
02:58PM 39.8717 -82.2528 288° West 255 293 8,600 -1,080 Descending Indianapolis Center
02:59PM 39.8931 -82.3414 287° West 254 292 7,500 -1,020 Descending Indianapolis Center
03:00PM 39.9147 -82.4300 288° West 255 293 6,500 -1,020 Descending Indianapolis Center
03:00PM 39.9211 -82.4606 285° West 255 293 6,200 -1,140 Descending Indianapolis Center
03:01PM 39.9358 -82.5181 288° West 254 292 5,400 -1,140 Descending Indianapolis Center
03:01PM 39.9406 -82.5469 282° West 251 289 5,100 -1,020 Descending Indianapolis Center
03:02PM 39.9564 -82.6019 291° West 245 282 4,400 -960 Descending Indianapolis Center
03:03PM 39.9761 -82.6889 287° West 225 259 3,400 -840 Descending Indianapolis Center
03:04PM 39.9903 -82.7486 287° West 193 222 2,700 -780 Descending Indianapolis Center
03:05PM 39.9989 -82.8072 281° West 175 201 1,900 -780 Descending Indianapolis Center
03:06PM 40.0008 -82.8539 273° West 146 168 1,100 -480 Descending Indianapolis Center
03:07PM 40.0039 -82.8969 275° West 142 163 1,000 -120 Descending Indianapolis Center
03:09PM 39.9980 -82.8920 180° South  Level Estimated